createdAt,value
2019-01-02T00:00:09.226Z,1009.12
2019-01-02T00:01:09.192Z,1009.10
2019-01-02T00:02:09.178Z,1009.12
2019-01-02T00:03:09.166Z,1009.05
2019-01-02T00:04:09.159Z,1009.09
2019-01-02T00:05:09.185Z,1009.12
2019-01-02T00:06:09.136Z,1009.10
2019-01-02T00:07:09.125Z,1009.09
2019-01-02T00:08:09.115Z,1009.11
2019-01-02T00:09:09.105Z,1008.99
2019-01-02T00:10:09.093Z,1009.03
2019-01-02T00:11:09.105Z,1009.08
2019-01-02T00:12:09.072Z,1009.11
2019-01-02T00:13:09.070Z,1009.08
2019-01-02T00:14:09.050Z,1009.08
2019-01-02T00:15:09.042Z,1009.06
2019-01-02T00:16:09.053Z,1009.16
2019-01-02T00:17:09.018Z,1009.14
2019-01-02T00:18:09.007Z,1009.16
2019-01-02T00:19:08.996Z,1009.07
2019-01-02T00:20:08.987Z,1009.14
2019-01-02T00:21:09.004Z,1009.16
2019-01-02T00:22:08.967Z,1009.20
2019-01-02T00:23:08.959Z,1009.20
2019-01-02T00:24:08.943Z,1009.14
2019-01-02T00:25:08.934Z,1009.30
2019-01-02T00:26:08.956Z,1009.30
2019-01-02T00:27:08.920Z,1009.28
2019-01-02T00:28:08.903Z,1009.21
2019-01-02T00:29:08.898Z,1009.20
2019-01-02T00:30:08.881Z,1009.33
2019-01-02T00:31:08.912Z,1009.22
2019-01-02T00:32:08.867Z,1009.27
2019-01-02T00:33:08.850Z,1009.29
2019-01-02T00:34:08.838Z,1009.28
2019-01-02T00:35:08.826Z,1009.27
2019-01-02T00:36:08.815Z,1009.29
2019-01-02T00:37:08.833Z,1009.20
2019-01-02T00:38:08.794Z,1009.23
2019-01-02T00:39:09.179Z,1009.29
2019-01-02T00:40:08.773Z,1009.31
2019-01-02T00:41:08.763Z,1009.30
2019-01-02T00:42:08.775Z,1009.32
2019-01-02T00:43:08.741Z,1009.26
2019-01-02T00:44:08.734Z,1009.25
2019-01-02T00:45:08.719Z,1009.17
2019-01-02T00:46:08.708Z,1009.22
2019-01-02T00:47:08.723Z,1009.30
2019-01-02T00:48:08.689Z,1009.24
2019-01-02T00:49:08.675Z,1009.28
2019-01-02T00:50:08.676Z,1009.23
2019-01-02T00:51:08.657Z,1009.35
2019-01-02T00:52:08.670Z,1009.42
2019-01-02T00:53:08.635Z,1009.35
2019-01-02T00:54:08.623Z,1009.34
2019-01-02T00:55:08.613Z,1009.42
2019-01-02T00:56:08.614Z,1009.27
2019-01-02T00:57:08.629Z,1009.37
2019-01-02T00:58:08.580Z,1009.48
2019-01-02T00:59:08.573Z,1009.49
2019-01-02T01:00:08.559Z,1009.59
2019-01-02T01:01:08.547Z,1009.55
2019-01-02T01:02:08.537Z,1009.60
2019-01-02T01:03:08.553Z,1009.59
2019-01-02T01:04:08.516Z,1009.64
2019-01-02T01:05:08.506Z,1009.60
2019-01-02T01:06:08.497Z,1009.60
2019-01-02T01:07:08.484Z,1009.65
2019-01-02T01:08:08.498Z,1009.65
2019-01-02T01:09:08.462Z,1009.64
2019-01-02T01:10:08.452Z,1009.62
2019-01-02T01:11:08.441Z,1009.57
2019-01-02T01:12:08.432Z,1009.58
2019-01-02T01:13:08.456Z,1009.61
2019-01-02T01:14:08.410Z,1009.65
2019-01-02T01:15:08.399Z,1009.65
2019-01-02T01:16:08.388Z,1009.62
2019-01-02T01:17:08.381Z,1009.66
2019-01-02T01:18:08.367Z,1009.67
2019-01-02T01:19:08.383Z,1009.66
2019-01-02T01:20:08.351Z,1009.67
2019-01-02T01:21:08.335Z,1009.74
2019-01-02T01:22:08.325Z,1009.63
2019-01-02T01:23:08.313Z,1009.61
2019-01-02T01:24:08.331Z,1009.71
2019-01-02T01:25:08.303Z,1009.80
2019-01-02T01:26:08.285Z,1009.60
2019-01-02T01:27:08.271Z,1009.69
2019-01-02T01:28:08.259Z,1009.84
2019-01-02T01:29:08.275Z,1009.78
2019-01-02T01:30:08.255Z,1009.77
2019-01-02T01:31:08.229Z,1009.72
2019-01-02T01:32:08.216Z,1009.78
2019-01-02T01:33:08.206Z,1009.77
2019-01-02T01:34:08.224Z,1009.79
2019-01-02T01:35:08.185Z,1009.74
2019-01-02T01:36:08.181Z,1009.75
2019-01-02T01:37:08.164Z,1009.78
2019-01-02T01:38:08.154Z,1009.78
2019-01-02T01:39:08.195Z,1009.71
2019-01-02T01:40:08.133Z,1009.69
2019-01-02T01:41:08.121Z,1009.72
2019-01-02T01:42:08.112Z,1009.76
2019-01-02T01:43:08.100Z,1009.72
2019-01-02T01:44:08.127Z,1009.82
2019-01-02T01:45:08.079Z,1009.76
2019-01-02T01:46:08.069Z,1009.70
2019-01-02T01:47:08.059Z,1009.72
2019-01-02T01:48:08.046Z,1009.78
2019-01-02T01:49:08.036Z,1009.70
2019-01-02T01:50:08.049Z,1009.68
2019-01-02T01:51:08.014Z,1009.67
2019-01-02T01:52:08.004Z,1009.72
2019-01-02T01:53:07.995Z,1009.64
2019-01-02T01:54:07.985Z,1009.74
2019-01-02T01:55:08.001Z,1009.73
2019-01-02T01:56:07.960Z,1009.68
2019-01-02T01:57:07.953Z,1009.66
2019-01-02T01:58:07.941Z,1009.72
2019-01-02T01:59:07.930Z,1009.74
2019-01-02T02:00:07.957Z,1009.72
2019-01-02T02:01:07.909Z,1009.78
2019-01-02T02:02:08.041Z,1009.71
2019-01-02T02:03:07.888Z,1009.75
2019-01-02T02:04:07.879Z,1009.82
2019-01-02T02:05:07.870Z,1009.86
2019-01-02T02:06:07.890Z,1009.78
2019-01-02T02:07:07.845Z,1009.78
2019-01-02T02:08:07.835Z,1009.77
2019-01-02T02:09:07.823Z,1009.83
2019-01-02T02:10:07.844Z,1009.75
2019-01-02T02:11:07.803Z,1009.79
2019-01-02T02:12:07.794Z,1009.88
2019-01-02T02:13:07.781Z,1009.94
2019-01-02T02:14:07.774Z,1009.84
2019-01-02T02:15:07.784Z,1009.84
2019-01-02T02:16:07.750Z,1009.91
2019-01-02T02:17:07.740Z,1009.83
2019-01-02T02:18:07.735Z,1009.83
2019-01-02T02:19:07.717Z,1009.84
2019-01-02T02:20:07.733Z,1009.88
2019-01-02T02:21:07.695Z,1010.00
2019-01-02T02:22:07.684Z,1009.93
2019-01-02T02:23:07.675Z,1009.93
2019-01-02T02:24:07.664Z,1009.99
2019-01-02T02:25:07.653Z,1009.98
2019-01-02T02:26:07.667Z,1010.05
2019-01-02T02:27:07.633Z,1010.05
2019-01-02T02:28:07.621Z,1010.05
2019-01-02T02:29:07.613Z,1009.94
2019-01-02T02:30:07.625Z,1009.96
2019-01-02T02:31:07.593Z,1010.03
2019-01-02T02:32:07.580Z,1010.14
2019-01-02T02:33:07.567Z,1009.96
2019-01-02T02:34:07.559Z,1010.09
2019-01-02T02:35:07.583Z,1010.08
2019-01-02T02:36:07.535Z,1010.11
2019-01-02T02:37:07.529Z,1010.08
2019-01-02T02:38:07.517Z,1010.06
2019-01-02T02:39:07.503Z,1010.03
2019-01-02T02:40:07.492Z,1010.10
2019-01-02T02:41:07.508Z,1010.15
2019-01-02T02:42:07.472Z,1010.18
2019-01-02T02:43:07.466Z,1010.21
2019-01-02T02:44:07.451Z,1010.16
2019-01-02T02:45:07.438Z,1010.16
2019-01-02T02:46:07.456Z,1010.21
2019-01-02T02:47:07.420Z,1010.22
2019-01-02T02:48:07.408Z,1010.28
2019-01-02T02:49:07.398Z,1010.14
2019-01-02T02:50:07.386Z,1010.19
2019-01-02T02:51:07.403Z,1010.20
2019-01-02T02:52:07.365Z,1010.16
2019-01-02T02:53:07.356Z,1010.13
2019-01-02T02:54:07.342Z,1010.16
2019-01-02T02:55:07.331Z,1010.21
2019-01-02T02:56:07.347Z,1010.19
2019-01-02T02:57:07.313Z,1010.13
2019-01-02T02:58:07.300Z,1010.20
2019-01-02T02:59:07.292Z,1010.19
2019-01-02T03:00:07.280Z,1010.19
2019-01-02T03:01:07.296Z,1010.16
2019-01-02T03:02:07.267Z,1010.12
2019-01-02T03:03:07.249Z,1010.13
2019-01-02T03:04:07.236Z,1010.15
2019-01-02T03:05:07.225Z,1010.20
2019-01-02T03:06:07.240Z,1010.12
2019-01-02T03:07:07.205Z,1010.13
2019-01-02T03:08:07.195Z,1010.08
2019-01-02T03:09:07.186Z,1010.09
2019-01-02T03:10:07.214Z,1010.13
2019-01-02T03:11:07.163Z,1010.12
2019-01-02T03:12:07.152Z,1010.09
2019-01-02T03:13:07.139Z,1010.10
2019-01-02T03:14:07.130Z,1010.10
2019-01-02T03:15:07.120Z,1010.14
2019-01-02T03:16:07.133Z,1010.15
2019-01-02T03:17:07.098Z,1010.28
2019-01-02T03:18:07.089Z,1010.22
2019-01-02T03:19:07.075Z,1010.29
2019-01-02T03:20:07.104Z,1010.25
2019-01-02T03:21:07.065Z,1010.33
2019-01-02T03:22:07.048Z,1010.43
2019-01-02T03:23:07.034Z,1010.40
2019-01-02T03:24:07.023Z,1010.41
2019-01-02T03:25:07.015Z,1010.33
2019-01-02T03:26:07.028Z,1010.34
2019-01-02T03:27:07.007Z,1010.47
2019-01-02T03:28:06.981Z,1010.41
2019-01-02T03:29:06.974Z,1010.36
2019-01-02T03:30:06.964Z,1010.41
2019-01-02T03:31:06.982Z,1010.47
2019-01-02T03:32:06.939Z,1010.55
2019-01-02T03:33:06.931Z,1010.56
2019-01-02T03:34:06.916Z,1010.52
2019-01-02T03:35:06.904Z,1010.59
2019-01-02T03:36:06.921Z,1010.57
2019-01-02T03:37:06.886Z,1010.66
2019-01-02T03:38:06.874Z,1010.69
2019-01-02T03:39:06.861Z,1010.78
2019-01-02T03:40:06.888Z,1010.77
2019-01-02T03:41:06.839Z,1010.76
2019-01-02T03:42:06.831Z,1010.74
2019-01-02T03:43:06.820Z,1010.91
2019-01-02T03:44:06.815Z,1011.06
2019-01-02T03:45:06.800Z,1010.85
2019-01-02T03:46:06.814Z,1010.88
2019-01-02T03:47:06.775Z,1010.91
2019-01-02T03:48:06.770Z,1010.83
2019-01-02T03:49:06.755Z,1010.94
2019-01-02T03:50:06.745Z,1010.84
2019-01-02T03:51:06.761Z,1010.83
2019-01-02T03:52:06.725Z,1010.83
2019-01-02T03:53:06.711Z,1010.79
2019-01-02T03:54:06.704Z,1010.84
2019-01-02T03:55:06.692Z,1010.83
2019-01-02T03:56:06.705Z,1010.81
2019-01-02T03:57:06.670Z,1010.89
2019-01-02T03:58:06.672Z,1010.88
2019-01-02T03:59:06.650Z,1010.94
2019-01-02T04:00:06.663Z,1010.93
2019-01-02T04:01:06.628Z,1010.86
2019-01-02T04:02:06.617Z,1010.93
2019-01-02T04:03:06.608Z,1010.98
2019-01-02T04:04:06.595Z,1010.98
2019-01-02T04:05:06.624Z,1011.00
2019-01-02T04:06:06.576Z,1010.94
2019-01-02T04:07:06.564Z,1010.99
2019-01-02T04:08:06.552Z,1011.00
2019-01-02T04:09:06.546Z,1010.95
2019-01-02T04:10:06.535Z,1010.98
2019-01-02T04:11:06.546Z,1011.02
2019-01-02T04:12:06.512Z,1011.08
2019-01-02T04:13:06.499Z,1010.96
2019-01-02T04:14:06.489Z,1011.02
2019-01-02T04:15:06.488Z,1010.99
2019-01-02T04:16:06.491Z,1010.98
2019-01-02T04:17:06.461Z,1011.01
2019-01-02T04:18:06.445Z,1010.99
2019-01-02T04:19:06.436Z,1011.06
2019-01-02T04:20:06.425Z,1011.01
2019-01-02T04:21:06.488Z,1011.02
2019-01-02T04:22:06.403Z,1011.06
2019-01-02T04:23:06.394Z,1011.12
2019-01-02T04:24:06.388Z,1011.10
2019-01-02T04:25:06.398Z,1011.03
2019-01-02T04:26:06.361Z,1011.05
2019-01-02T04:27:06.350Z,1011.12
2019-01-02T04:28:06.340Z,1011.07
2019-01-02T04:29:06.328Z,1011.09
2019-01-02T04:30:06.360Z,1011.12
2019-01-02T04:31:06.310Z,1011.12
2019-01-02T04:32:06.300Z,1011.16
2019-01-02T04:33:06.288Z,1011.16
2019-01-02T04:34:06.274Z,1011.17
2019-01-02T04:35:06.267Z,1011.26
2019-01-02T04:36:06.280Z,1011.28
2019-01-02T04:37:06.244Z,1011.27
2019-01-02T04:38:06.233Z,1011.35
2019-01-02T04:39:06.222Z,1011.25
2019-01-02T04:40:06.253Z,1011.32
2019-01-02T04:41:06.202Z,1011.26
2019-01-02T04:42:06.191Z,1011.39
2019-01-02T04:43:06.178Z,1011.34
2019-01-02T04:44:06.170Z,1011.41
2019-01-02T04:45:06.162Z,1011.45
2019-01-02T04:46:06.171Z,1011.39
2019-01-02T04:47:06.138Z,1011.42
2019-01-02T04:48:06.125Z,1011.53
2019-01-02T04:49:06.115Z,1011.56
2019-01-02T04:50:06.142Z,1011.49
2019-01-02T04:51:06.096Z,1011.49
2019-01-02T04:52:06.084Z,1011.49
2019-01-02T04:53:06.075Z,1011.48
2019-01-02T04:54:06.066Z,1011.52
2019-01-02T04:55:06.053Z,1011.50
2019-01-02T04:56:06.068Z,1011.54
2019-01-02T04:57:06.031Z,1011.49
2019-01-02T04:58:06.022Z,1011.56
2019-01-02T04:59:06.009Z,1011.51
2019-01-02T05:00:06.002Z,1011.50
2019-01-02T05:01:06.017Z,1011.54
2019-01-02T05:02:05.987Z,1011.58
2019-01-02T05:03:05.969Z,1011.58
2019-01-02T05:04:05.955Z,1011.59
2019-01-02T05:05:05.973Z,1011.60
2019-01-02T05:06:05.933Z,1011.56
2019-01-02T05:07:05.925Z,1011.55
2019-01-02T05:08:05.914Z,1011.57
2019-01-02T05:09:05.902Z,1011.60
2019-01-02T05:10:05.932Z,1011.62
2019-01-02T05:11:05.880Z,1011.57
2019-01-02T05:12:05.872Z,1011.63
2019-01-02T05:13:05.860Z,1011.59
2019-01-02T05:14:05.848Z,1011.67
2019-01-02T05:15:05.840Z,1011.69
2019-01-02T05:16:05.859Z,1011.74
2019-01-02T05:17:05.819Z,1011.65
2019-01-02T05:18:05.808Z,1011.68
2019-01-02T05:19:05.796Z,1011.75
2019-01-02T05:20:05.808Z,1011.86
2019-01-02T05:21:05.775Z,1011.69
2019-01-02T05:22:05.763Z,1011.73
2019-01-02T05:23:05.753Z,1011.75
2019-01-02T05:24:05.741Z,1011.77
2019-01-02T05:25:05.758Z,1011.76
2019-01-02T05:26:05.722Z,1011.80
2019-01-02T05:27:05.711Z,1011.84
2019-01-02T05:28:05.701Z,1011.83
2019-01-02T05:29:05.689Z,1011.86
2019-01-02T05:30:05.712Z,1011.85
2019-01-02T05:31:05.669Z,1011.87
2019-01-02T05:32:05.656Z,1011.98
2019-01-02T05:33:05.645Z,1011.99
2019-01-02T05:34:05.634Z,1012.00
2019-01-02T05:35:05.625Z,1012.02
2019-01-02T05:36:05.641Z,1012.02
2019-01-02T05:37:05.602Z,1012.01
2019-01-02T05:38:05.593Z,1012.16
2019-01-02T05:39:05.585Z,1012.09
2019-01-02T05:40:05.571Z,1012.12
2019-01-02T05:41:05.587Z,1012.07
2019-01-02T05:42:05.550Z,1012.14
2019-01-02T05:43:05.539Z,1012.15
2019-01-02T05:44:05.529Z,1012.13
2019-01-02T05:45:05.517Z,1012.19
2019-01-02T05:46:05.533Z,1012.20
2019-01-02T05:47:05.498Z,1012.24
2019-01-02T05:48:05.486Z,1012.24
2019-01-02T05:49:05.475Z,1012.20
2019-01-02T05:50:05.491Z,1012.29
2019-01-02T05:51:05.452Z,1012.24
2019-01-02T05:52:05.455Z,1012.28
2019-01-02T05:53:05.433Z,1012.34
2019-01-02T05:54:05.422Z,1012.31
2019-01-02T05:55:05.411Z,1012.44
2019-01-02T05:56:05.423Z,1012.35
2019-01-02T05:57:05.392Z,1012.36
2019-01-02T05:58:05.380Z,1012.47
2019-01-02T05:59:05.368Z,1012.41
2019-01-02T06:00:05.382Z,1012.40
2019-01-02T06:01:05.347Z,1012.46
2019-01-02T06:02:05.339Z,1012.53
2019-01-02T06:03:05.325Z,1012.60
2019-01-02T06:04:05.314Z,1012.60
2019-01-02T06:05:05.329Z,1012.56
2019-01-02T06:06:05.293Z,1012.61
2019-01-02T06:07:05.283Z,1012.71
2019-01-02T06:08:05.271Z,1012.63
2019-01-02T06:09:05.260Z,1012.71
2019-01-02T06:10:05.271Z,1012.68
2019-01-02T06:11:05.239Z,1012.74
2019-01-02T06:12:05.229Z,1012.77
2019-01-02T06:13:05.217Z,1012.74
2019-01-02T06:14:05.213Z,1012.77
2019-01-02T06:15:05.222Z,1012.79
2019-01-02T06:16:05.195Z,1012.79
2019-01-02T06:17:05.173Z,1012.85
2019-01-02T06:18:05.165Z,1012.84
2019-01-02T06:19:05.153Z,1012.86
2019-01-02T06:20:05.171Z,1012.91
2019-01-02T06:21:05.139Z,1012.88
2019-01-02T06:22:05.120Z,1012.88
2019-01-02T06:23:05.110Z,1012.89
2019-01-02T06:24:05.098Z,1012.90
2019-01-02T06:25:05.127Z,1012.89
2019-01-02T06:26:05.079Z,1012.91
2019-01-02T06:27:05.070Z,1013.02
2019-01-02T06:28:05.058Z,1012.94
2019-01-02T06:29:05.047Z,1012.98
2019-01-02T06:30:05.043Z,1012.92
2019-01-02T06:31:05.052Z,1012.91
2019-01-02T06:32:05.014Z,1012.94
2019-01-02T06:33:05.007Z,1012.93
2019-01-02T06:34:04.994Z,1012.95
2019-01-02T06:35:04.985Z,1012.97
2019-01-02T06:36:04.998Z,1013.05
2019-01-02T06:37:04.960Z,1013.11
2019-01-02T06:38:04.953Z,1013.16
2019-01-02T06:39:04.946Z,1013.12
2019-01-02T06:40:04.959Z,1013.15
2019-01-02T06:41:04.920Z,1013.19
2019-01-02T06:42:04.909Z,1013.19
2019-01-02T06:43:04.900Z,1013.20
2019-01-02T06:44:04.889Z,1013.23
2019-01-02T06:45:04.913Z,1013.23
2019-01-02T06:46:04.880Z,1013.31
2019-01-02T06:47:04.854Z,1013.31
2019-01-02T06:48:04.844Z,1013.29
2019-01-02T06:49:04.834Z,1013.31
2019-01-02T06:50:04.822Z,1013.35
2019-01-02T06:51:04.839Z,1013.38
2019-01-02T06:52:04.803Z,1013.39
2019-01-02T06:53:04.792Z,1013.42
2019-01-02T06:54:04.779Z,1013.51
2019-01-02T06:55:04.775Z,1013.45
2019-01-02T06:56:04.786Z,1013.49
2019-01-02T06:57:04.749Z,1013.54
2019-01-02T06:58:04.738Z,1013.52
2019-01-02T06:59:04.727Z,1013.48
2019-01-02T07:00:04.755Z,1013.55
2019-01-02T07:01:04.704Z,1013.55
2019-01-02T07:02:04.696Z,1013.62
2019-01-02T07:03:04.684Z,1013.60
2019-01-02T07:04:04.672Z,1013.65
2019-01-02T07:05:04.669Z,1013.71
2019-01-02T07:06:04.680Z,1013.66
2019-01-02T07:07:04.640Z,1013.74
2019-01-02T07:08:04.635Z,1013.75
2019-01-02T07:09:04.622Z,1013.72
2019-01-02T07:10:04.648Z,1013.82
2019-01-02T07:11:04.596Z,1013.85
2019-01-02T07:12:04.594Z,1013.84
2019-01-02T07:13:04.578Z,1013.85
2019-01-02T07:14:04.568Z,1013.95
2019-01-02T07:15:04.556Z,1013.89
2019-01-02T07:16:04.574Z,1013.91
2019-01-02T07:17:04.534Z,1014.03
2019-01-02T07:18:04.523Z,1014.04
2019-01-02T07:19:04.512Z,1014.08
2019-01-02T07:20:04.505Z,1014.01
2019-01-02T07:21:04.517Z,1014.07
2019-01-02T07:22:04.483Z,1014.10
2019-01-02T07:23:04.470Z,1014.10
2019-01-02T07:24:04.459Z,1014.07
2019-01-02T07:25:04.452Z,1014.33
2019-01-02T07:26:04.462Z,1014.30
2019-01-02T07:27:04.426Z,1014.29
2019-01-02T07:28:04.415Z,1014.23
2019-01-02T07:29:04.403Z,1014.30
2019-01-02T07:30:04.394Z,1014.32
2019-01-02T07:31:04.407Z,1014.33
2019-01-02T07:32:04.373Z,1014.37
2019-01-02T07:33:04.416Z,1014.43
2019-01-02T07:34:04.352Z,1014.36
2019-01-02T07:35:04.340Z,1014.48
2019-01-02T07:36:04.361Z,1014.42
2019-01-02T07:37:04.326Z,1014.47
2019-01-02T07:38:04.308Z,1014.52
2019-01-02T07:39:04.299Z,1014.47
2019-01-02T07:40:04.289Z,1014.44
2019-01-02T07:41:04.300Z,1014.46
2019-01-02T07:42:04.267Z,1014.41
2019-01-02T07:43:04.261Z,1014.53
2019-01-02T07:44:04.246Z,1014.59
2019-01-02T07:45:04.257Z,1014.54
2019-01-02T07:46:04.251Z,1014.55
2019-01-02T07:47:04.212Z,1014.58
2019-01-02T07:48:04.214Z,1014.62
2019-01-02T07:49:04.194Z,1014.58
2019-01-02T07:50:04.210Z,1014.68
2019-01-02T07:51:04.172Z,1014.62
2019-01-02T07:52:04.160Z,1014.72
2019-01-02T07:53:04.150Z,1014.79
2019-01-02T07:54:04.140Z,1014.72
2019-01-02T07:55:04.153Z,1014.81
2019-01-02T07:56:04.118Z,1014.91
2019-01-02T07:57:04.110Z,1014.77
2019-01-02T07:58:04.097Z,1014.85
2019-01-02T07:59:04.092Z,1014.99
2019-01-02T08:00:04.103Z,1014.95
2019-01-02T08:01:04.066Z,1014.99
2019-01-02T08:02:04.054Z,1015.06
2019-01-02T08:03:04.045Z,1014.94
2019-01-02T08:04:04.040Z,1015.02
2019-01-02T08:05:04.049Z,1014.99
2019-01-02T08:06:04.012Z,1015.13
2019-01-02T08:07:04.003Z,1015.14
2019-01-02T08:08:03.991Z,1015.20
2019-01-02T08:09:03.983Z,1015.09
2019-01-02T08:10:04.007Z,1015.15
2019-01-02T08:11:03.965Z,1015.21
2019-01-02T08:12:04.033Z,1015.22
2019-01-02T08:13:03.942Z,1015.21
2019-01-02T08:14:03.927Z,1015.20
2019-01-02T08:15:03.918Z,1015.29
2019-01-02T08:16:03.931Z,1015.31
2019-01-02T08:17:03.902Z,1015.33
2019-01-02T08:18:03.891Z,1015.38
2019-01-02T08:19:03.880Z,1015.25
2019-01-02T08:20:04.166Z,1015.53
2019-01-02T08:21:03.894Z,1015.39
2019-01-02T08:22:03.844Z,1015.39
2019-01-02T08:23:03.831Z,1015.44
2019-01-02T08:24:03.820Z,1015.40
2019-01-02T08:25:03.815Z,1015.48
2019-01-02T08:26:03.828Z,1015.46
2019-01-02T08:27:03.795Z,1015.54
2019-01-02T08:28:03.776Z,1015.48
2019-01-02T08:29:03.806Z,1015.47
2019-01-02T08:30:03.763Z,1015.48
2019-01-02T08:31:03.810Z,1015.48
2019-01-02T08:32:03.737Z,1015.55
2019-01-02T08:33:03.723Z,1015.62
2019-01-02T08:34:03.717Z,1015.62
2019-01-02T08:35:03.707Z,1015.62
2019-01-02T08:36:03.719Z,1015.61
2019-01-02T08:37:03.685Z,1015.62
2019-01-02T08:38:03.671Z,1015.65
2019-01-02T08:39:03.661Z,1015.64
2019-01-02T08:40:03.677Z,1015.71
2019-01-02T08:41:03.641Z,1015.77
2019-01-02T08:42:03.632Z,1015.72
2019-01-02T08:43:03.619Z,1015.85
2019-01-02T08:44:03.609Z,1015.83
2019-01-02T08:45:03.607Z,1015.82
2019-01-02T08:46:03.616Z,1015.87
2019-01-02T08:47:03.581Z,1015.91
2019-01-02T08:48:03.570Z,1015.88
2019-01-02T08:49:03.558Z,1015.83
2019-01-02T08:50:03.552Z,1015.95
2019-01-02T08:51:03.561Z,1015.93
2019-01-02T08:52:03.526Z,1015.99
2019-01-02T08:53:03.514Z,1015.98
2019-01-02T08:54:03.507Z,1016.02
2019-01-02T08:55:03.522Z,1015.97
2019-01-02T08:56:03.480Z,1016.04
2019-01-02T08:57:03.473Z,1015.95
2019-01-02T08:58:03.462Z,1016.02
2019-01-02T08:59:03.453Z,1016.07
2019-01-02T09:00:03.485Z,1016.12
2019-01-02T09:01:03.469Z,1016.14
2019-01-02T09:02:03.420Z,1016.22
2019-01-02T09:03:03.412Z,1016.21
2019-01-02T09:04:03.403Z,1016.23
2019-01-02T09:05:03.400Z,1016.27
2019-01-02T09:06:03.403Z,1016.18
2019-01-02T09:07:10.397Z,1016.25
2019-01-02T09:08:03.402Z,1016.32
2019-01-02T09:09:03.352Z,1016.42
2019-01-02T09:10:03.337Z,1016.39
2019-01-02T09:11:03.352Z,1016.49
2019-01-02T09:12:03.319Z,1016.53
2019-01-02T09:13:03.304Z,1016.58
2019-01-02T09:14:03.296Z,1016.67
2019-01-02T09:15:03.282Z,1016.76
2019-01-02T09:16:03.299Z,1016.93
2019-01-02T09:17:03.271Z,1016.95
2019-01-02T09:18:03.253Z,1017.05
2019-01-02T09:19:03.239Z,1017.06
2019-01-02T09:20:03.236Z,1017.11
2019-01-02T09:21:03.247Z,1017.19
2019-01-02T09:22:03.212Z,1017.15
2019-01-02T09:23:03.203Z,1017.23
2019-01-02T09:24:03.190Z,1017.18
2019-01-02T09:25:03.177Z,1017.26
2019-01-02T09:26:03.197Z,1017.27
2019-01-02T09:27:03.154Z,1017.33
2019-01-02T09:28:03.148Z,1017.34
2019-01-02T09:29:03.137Z,1017.33
2019-01-02T09:30:03.126Z,1017.34
2019-01-02T09:31:03.137Z,1017.37
2019-01-02T09:32:03.101Z,1017.34
2019-01-02T09:33:03.093Z,1017.36
2019-01-02T09:34:03.082Z,1017.40
2019-01-02T09:35:03.109Z,1017.41
2019-01-02T09:36:03.066Z,1017.40
2019-01-02T09:37:03.063Z,1017.44
2019-01-02T09:38:03.041Z,1017.48
2019-01-02T09:39:03.029Z,1017.41
2019-01-02T09:40:03.020Z,1017.48
2019-01-02T09:41:03.036Z,1017.45
2019-01-02T09:42:02.999Z,1017.50
2019-01-02T09:43:02.994Z,1017.47
2019-01-02T09:44:02.976Z,1017.56
2019-01-02T09:45:02.964Z,1017.50
2019-01-02T09:46:02.980Z,1017.52
2019-01-02T09:47:02.941Z,1017.56
2019-01-02T09:48:02.987Z,1017.61
2019-01-02T09:49:02.925Z,1017.59
2019-01-02T09:50:02.959Z,1017.60
2019-01-02T09:51:02.926Z,1017.66
2019-01-02T09:52:02.890Z,1017.65
2019-01-02T09:53:02.879Z,1017.61
2019-01-02T09:54:02.867Z,1017.68
2019-01-02T09:55:02.918Z,1017.68
2019-01-02T09:56:02.875Z,1017.69
2019-01-02T09:57:02.878Z,1017.70
2019-01-02T09:58:02.824Z,1017.70
2019-01-02T09:59:02.814Z,1017.72
2019-01-02T10:00:02.811Z,1017.73
2019-01-02T10:01:02.817Z,1017.73
2019-01-02T10:02:02.804Z,1017.75
2019-01-02T10:03:02.819Z,1017.73
2019-01-02T10:04:02.761Z,1017.77
2019-01-02T10:05:02.751Z,1017.80
2019-01-02T10:06:02.767Z,1017.80
2019-01-02T10:07:02.753Z,1017.74
2019-01-02T10:08:02.789Z,1017.76
2019-01-02T10:09:02.708Z,1017.82
2019-01-02T10:10:02.705Z,1017.85
2019-01-02T10:11:02.793Z,1017.84
2019-01-02T10:12:02.690Z,1017.84
2019-01-02T10:13:02.688Z,1017.91
2019-01-02T10:14:02.655Z,1017.87
2019-01-02T10:15:02.647Z,1017.91
2019-01-02T10:16:02.741Z,1017.89
2019-01-02T10:17:02.646Z,1017.91
2019-01-02T10:18:02.635Z,1017.91
2019-01-02T10:19:02.607Z,1017.96
2019-01-02T10:20:02.593Z,1017.93
2019-01-02T10:21:02.632Z,1018.00
2019-01-02T10:22:02.588Z,1017.95
2019-01-02T10:23:02.586Z,1017.96
2019-01-02T10:24:02.557Z,1017.95
2019-01-02T10:25:02.549Z,1017.93
2019-01-02T10:26:02.619Z,1017.89
2019-01-02T10:27:02.514Z,1017.90
2019-01-02T10:28:02.541Z,1017.98
2019-01-02T10:29:02.564Z,1017.94
2019-01-02T10:30:02.511Z,1017.94
2019-01-02T10:31:02.586Z,1017.98
2019-01-02T10:32:02.462Z,1018.01
2019-01-02T10:33:02.528Z,1017.99
2019-01-02T10:34:02.440Z,1018.04
2019-01-02T10:35:02.432Z,1017.98
2019-01-02T10:36:02.528Z,1018.03
2019-01-02T10:37:02.414Z,1018.07
2019-01-02T10:38:02.399Z,1018.11
2019-01-02T10:39:02.472Z,1018.10
2019-01-02T10:40:02.611Z,1018.12
2019-01-02T10:41:02.394Z,1018.11
2019-01-02T10:42:02.377Z,1018.11
2019-01-02T10:43:02.416Z,1018.14
2019-01-02T10:44:02.338Z,1018.18
2019-01-02T10:45:02.332Z,1018.13
2019-01-02T10:46:02.373Z,1018.18
2019-01-02T10:47:02.302Z,1018.15
2019-01-02T10:48:02.335Z,1018.16
2019-01-02T10:49:02.455Z,1018.19
2019-01-02T10:50:02.285Z,1018.24
2019-01-02T10:51:02.287Z,1018.22
2019-01-02T10:52:02.321Z,1018.18
2019-01-02T10:53:02.238Z,1018.28
2019-01-02T10:54:02.246Z,1018.27
2019-01-02T10:55:02.216Z,1018.32
2019-01-02T10:56:02.277Z,1018.29
2019-01-02T10:57:02.209Z,1018.33
2019-01-02T10:58:02.184Z,1018.26
2019-01-02T10:59:02.177Z,1018.24
2019-01-02T11:00:02.214Z,1018.26
2019-01-02T11:01:02.205Z,1018.30
2019-01-02T11:02:02.229Z,1018.30
2019-01-02T11:03:02.188Z,1018.33
2019-01-02T11:04:02.128Z,1018.34
2019-01-02T11:05:02.139Z,1018.32
2019-01-02T11:06:02.141Z,1018.34
2019-01-02T11:07:02.113Z,1018.34
2019-01-02T11:08:02.100Z,1018.41
2019-01-02T11:09:02.112Z,1018.36
2019-01-02T11:10:02.107Z,1018.32
2019-01-02T11:11:02.086Z,1018.35
2019-01-02T11:12:02.039Z,1018.35
2019-01-02T11:13:02.026Z,1018.39
2019-01-02T11:14:02.093Z,1018.43
2019-01-02T11:15:02.019Z,1018.41
2019-01-02T11:16:02.038Z,1018.43
2019-01-02T11:17:02.010Z,1018.38
2019-01-02T11:18:01.988Z,1018.44
2019-01-02T11:19:01.981Z,1018.47
2019-01-02T11:20:01.952Z,1018.51
2019-01-02T11:21:02.023Z,1018.42
2019-01-02T11:22:02.000Z,1018.49
2019-01-02T11:23:01.933Z,1018.48
2019-01-02T11:24:01.910Z,1018.54
2019-01-02T11:25:01.922Z,1018.54
2019-01-02T11:26:01.926Z,1018.52
2019-01-02T11:27:01.877Z,1018.52
2019-01-02T11:28:01.868Z,1018.66
2019-01-02T11:29:01.928Z,1018.52
2019-01-02T11:30:01.920Z,1018.66
2019-01-02T11:31:01.888Z,1018.60
2019-01-02T11:32:01.825Z,1018.63
2019-01-02T11:33:01.825Z,1018.63
2019-01-02T11:34:01.819Z,1018.68
2019-01-02T11:35:01.813Z,1018.70
2019-01-02T11:36:01.902Z,1018.66
2019-01-02T11:37:01.788Z,1018.78
2019-01-02T11:38:01.838Z,1018.80
2019-01-02T11:39:01.786Z,1018.72
2019-01-02T11:40:01.763Z,1018.74
2019-01-02T11:41:01.843Z,1018.75
2019-01-02T11:42:01.717Z,1018.84
2019-01-02T11:43:01.745Z,1018.84
2019-01-02T11:44:01.703Z,1018.86
2019-01-02T11:45:01.712Z,1018.84
2019-01-02T11:46:01.700Z,1018.83
2019-01-02T11:47:01.685Z,1018.84
2019-01-02T11:48:01.781Z,1018.92
2019-01-02T11:49:01.643Z,1018.96
2019-01-02T11:50:01.648Z,1018.85
2019-01-02T11:51:01.652Z,1018.93
2019-01-02T11:52:01.628Z,1018.84
2019-01-02T11:53:01.611Z,1018.86
2019-01-02T11:54:01.588Z,1018.86
2019-01-02T11:55:01.628Z,1018.90
2019-01-02T11:56:01.590Z,1018.88
2019-01-02T11:57:01.556Z,1018.86
2019-01-02T11:58:01.546Z,1019.04
2019-01-02T11:59:01.535Z,1018.93
2019-01-02T12:00:01.524Z,1018.94
2019-01-02T12:01:01.540Z,1019.05
2019-01-02T12:02:01.608Z,1019.05
2019-01-02T12:03:01.493Z,1019.01
2019-01-02T12:04:01.478Z,1018.96
2019-01-02T12:05:01.473Z,1018.95